Espace membre
Imprimable
Eupen, 03-04/08/2019, BEL - OstbelgienTriathlon
Liste des rapports > MD - Classements
Recherche: Page: [1]
199 Entrées
 
Les réclamations ne sont plus acceptées, les résultats sont considérés comme définitifs.
Catégorie
PosNrNomAgeIOCTempsTkmMoy.RangNomLocalité
1.2021BRYDENBACH Tim35BEL4:11:343:33 16.931m24VORSELAAR
2.2018DIDIER Antoine27BEL4:19:043:39 16.442m24CINEY
3.2012DE GROOT Daan28NLD4:19:383:40 16.413m24UTRECHT
4.2091REDING François35BEL4:19:593:40 16.394m24THIAUMONT
5.2040DENIS Sylvain36BEL4:21:193:41 16.305m24NAMÈCHE
6.2011DE JONGE Marijn32NLD4:27:073:46 15.956m24ZEIST
7.2054PEX Nelis31BEL4:27:293:47 15.937m24SCHERPENHEUVEL
8.2184DILLO Peter-Johan49NLD4:30:283:49 15.751m40SCHAGEN
9.2129FOUSS François41BEL4:30:563:49 15.722m40SOIGNIES
10.2060ROST Dave48NLD4:32:333:51 15.633m40LINGEWAARD
11.2028THIROT Benoit40BEL4:33:163:51 15.594m40BOUSSOIT
12.2172ZWAENEPOEL Jo37BEL4:33:323:52 15.578m24MAARKEDAL
13.2042THIRIFAYS François25BEL4:35:343:53 15.469m24LASNE
14.2178LAUWERS Aurélien34BEL4:36:183:54 15.4210m24THIMÉON
15.2085CORNELIS Olivier39BEL4:39:573:57 15.2211m24RUMST
16.2214GUILMOT Pierre-Philippe28BEL4:41:593:59 15.1112m24WIERDE
17.2020DE GENDT Ruben32BEL4:42:203:59 15.0913m24SCHELDEWINDEKE
18.2167VAN DONGEN Edouard29BEL4:43:504:00 15.0114m24LINKEBEEK
19.2157BOUSMANNE Marc46BEL4:45:154:02 14.945m40SAINT-SYMPHORIEN
20.2064REZSÖHAZY Romain21BEL4:45:344:02 14.921mu23COURT SAINT ETIENNE
21.2031HEESTERMANS Frank30NLD4:46:014:02 14.8915m24DE STEEG
22.2006LOIX Jimmy41BEL4:47:014:03 14.846m40TONGEREN
23.2196LANGERAK Jacco33NLD4:47:364:04 14.8116m24UTRECHT
24.2107GOOSSENS Bas40NLD4:49:254:05 14.727m40BORCULO
25.2027NERRINCK Johan40BEL4:51:104:07 14.638m40CHERATTE
26.2151DE BOER Joris30NLD4:51:414:07 14.6117m24WINKEL
27.2120SCHOUPPE Dries33BEL4:51:474:07 14.6018m24OUDEGEM
28.2206LANGENHORST Jurgen31NLD4:51:554:07 14.5919m24HAARLEM
29.2205BERTRET Alexandre25FRA4:52:344:08 14.5620m24LIÈGE
30.2161VAN EIJK Rens28NLD4:53:454:09 14.5021m24UTRECHT
31.2003MEEUS Nik42BEL4:54:354:09 14.469m40GEEL
32.2063SEVERIJNS Maxime34NLD4:56:104:11 14.3822m24MAASTRICHT
33.2032BONAMIE Davey33BEL4:56:124:11 14.3823m24OOSTKAMP
34.2119PLAETEVOET Yannick25BEL4:56:344:11 14.3724m24ANTWERPEN
35.2002FZIEMONS Kristina35DEU4:56:374:11 14.361f24AACHEN
36.2086SUYS Olivier27BEL4:56:434:11 14.3625m24BRUXELLES
37.2105CALLE Sebastien47FRA4:58:024:12 14.2910m40UCCLE
38.2024SAEY Timothy36BEL5:00:244:14 14.1826m24ASSENEDE
39.2075VAN LAAR Henk56NLD5:01:124:15 14.141m50UITHOORN
40.2153MATTHYS Marc56BEL5:01:144:15 14.142m50WEZEMAAL
41.2067FVAN VLIET Linda39NLD5:01:244:15 14.132f24NIJMEGEN
42.2061DEVRIENDT Orion Osiris33BEL5:02:504:16 14.0727m24SCHAARBEEK
43.2162DE GEYTER Benjamin32BEL5:03:234:17 14.0428m24NAZARETH
44.2098BRIERS Maarten42BEL5:05:534:19 13.9311m40TONGEREN
45.2087PLATTON Maxime22BEL5:06:034:19 13.922mu23WEPION
46.2009DE NAYER Jan38BEL5:06:394:20 13.8929m24BRECHT
47.2128UBACHS Joey39NLD5:06:464:20 13.8930m24WEERT
48.2025GAIN Adrien31BEL5:07:194:20 13.8631m24CHARLEROI
49.2014COOLS Jan43BEL5:08:144:21 13.8212m40WUUSTWEZEL
50.2053STASSEN Renaud32DEU5:08:184:21 13.8232m24HOMBOURG
51.2057LAMBERG Olivier53BEL5:09:364:22 13.763m50GRIMBERGEN
52.2033SMET Luc55BEL5:09:514:22 13.754m50BELSELE
53.2039DAEL Fabrice40BEL5:10:374:23 13.7213m40JALHAY
54.2213DUPONT Damien28BEL5:12:554:25 13.6133m24FALISOLLE
55.2183CASTERMANS Christophe41BEL5:13:264:25 13.5914m40TONGEREN
56.2112VANDEN BREEDE Dirk45BEL5:13:334:25 13.5915m40MEERBEEK
57.2073MICHIELS Manuel40BEL5:13:424:26 13.5816m40BRUXELLES
58.2088RIVART Christophe43BEL5:13:434:26 13.5817m40MONS
59.2199VERMEULEN Bram39BEL5:14:144:26 13.5634m24SLEIDINGE
60.2046FDECALUWE Kelly27BEL5:15:184:27 13.513f24RONGY
61.2210VAN DER VLOET David34BEL5:16:374:28 13.4535m24KESSEL-LO
62.2044DU BRULLE Arthur24BEL5:19:394:31 13.3336m24BRUXELLES
63.2090PAELINCKX Bert42BEL5:21:534:33 13.2418m40WUUSTWEZEL
64.2048FBURGER Meryl29NLD5:21:534:33 13.234f24UTRECHT
65.2149DEFECHEREUX Fabian48BEL5:23:294:34 13.1719m40ESNEUX
66.2108VANDERHEYDEN Lionel36BEL5:24:074:34 13.1437m24RAGNIES
67.2109CARIS Bart41BEL5:24:174:35 13.1420m40KINROOI
68.2135COOLS Stijn36BEL5:24:284:35 13.1338m24RIJKEVORSEL
69.2174VAN LOMMEL Dieter42BEL5:26:274:36 13.0521m40BEERSE
70.2036MIZZI Quentin29FRA5:26:294:36 13.0539m24BOMBAYE
71.2154LOUP Ulrich38DEU5:27:054:37 13.0240m24AACHEN
72.2141FVAN DER FLUIT Talisa30NLD5:27:464:37 13.005f24HOLLANDS KROON
73.2008JAKUBOWSKI Uwe49DEU5:28:164:38 12.9822m40WILLICH
74.2190BARIGAND Cyril27BEL5:28:404:38 12.9641m24MONS
75.2100DE BACKER Steven45BEL5:28:404:38 12.9623m40DE PINTE
76.2173DOCKX Jeroen40BEL5:29:484:39 12.9224m40STERREBEEK
77.2146BAUDSON David44BEL5:30:354:40 12.8925m40MARCINELLE
78.2171WULLAERT Dimitri36BEL5:30:534:40 12.8742m24WAREGEM
79.2103SAFFROY Thibaut26FRA5:31:124:40 12.8643m24BRUXELLES
80.2145MAHMENS Timo39DEU5:31:254:41 12.8544m24MONHEIM
81.2019NAUDTS Gaetan39BEL5:31:374:41 12.8545m24WATERLOO
82.2201VERGNOL Arnaud35FRA5:33:114:42 12.7946m24SAINT JOSSE
83.2041FICKERS Daniel53BEL5:33:114:42 12.795m50BÜLLINGEN
84.2071DOCKX Jimmy35BEL5:33:364:42 12.7747m24SCHOTEN
85.2218FORTHEN Lea35DEU5:33:414:42 12.776f24BONN
86.2212DESCAMPS Adrien25BEL5:33:554:43 12.7648m24IXELLES
87.2004FMELCKMANS Daphne27BEL5:34:354:43 12.737f24BRUXELLES
88.2142VANDENEEDE Diederik46BEL5:34:434:43 12.7326m40VILVOORDE
89.2118DIBLIK Jens32DEU5:35:064:44 12.7149m24MARMAGEN
90.2121VAN DEN BROECK Stef38BEL5:35:424:44 12.6950m24WESTERLO
91.2023FREHLINGER Anja34DEU5:35:564:44 12.688f24HABAY
92.2123PHILIPS Vincent41NLD5:36:484:45 12.6527m40'S-GRAVENHAGE
93.2015SCHOLTES Maxime30FRA5:37:094:45 12.6451m24MONDORF-LES-BAINS
94.2130MAHLER Sjors28NLD5:37:534:46 12.6152m24AMSTERDAM
95.2056DELHAYE Patrick52BEL5:38:134:46 12.606m50FONTAINE VALMONT
96.2156BOSCH René51NLD5:38:464:47 12.587m50VORDEN
97.2089TITS David45BEL5:39:434:48 12.5428m40CELLES
98.2037DOMINGUES Daniel45FRA5:41:254:49 12.4829m40SAINT RÉMY DU NORD
99.2005COLLOT Jo55BEL5:41:464:49 12.478m50GREZ-DOICEAU
100.2114WESSEL SchotNLD5:42:194:50 12.441xxxAMSTERDAM
101.2047LEMMENS Nikola39BEL5:43:244:51 12.4153m24FRECHEN
102.2094VANHAUTE Ward37BEL5:43:314:51 12.4054m24BRASSCHAAT
103.2216FPRONK Yoni26NLD5:43:474:51 12.399f24SCHAGEN
104.2043KARKAN Alexandre24BEL5:44:174:51 12.3755m24BRUXELLES
105.2122DUBOIS Thibaut45BEL5:44:174:51 12.3730m40LA LOUVIERE
106.2079VAN DIEVOET Maxence19BEL5:45:244:52 12.333mu23BRUSSELS
107.2055VAN RIJ Kaey35NLD5:45:394:53 12.3356m24ROTTERDAM
108.2207PAULET Gaetan35BEL5:46:334:53 12.2957m24NIMY
109.2160FNIEBERG Marloes29NLD5:46:424:53 12.2910f24UTRECHT
110.2076LEGRAND Jean-Marc57BEL5:47:344:54 12.269m50THEUX
111.2007GEIMER Günter57DEU5:47:554:55 12.2410m50ATZELGIFT
112.2140LADWIG Matthias41DEU5:48:314:55 12.2231m40OOSTENDE
113.2126FSMEETS Sandra41NLD5:49:154:56 12.201f40HEYTHUYSEN
114.2083HENRI Pierre56BEL5:49:224:56 12.1911m50ANDENNE
115.2132GERNAEY Jeroen36BEL5:49:404:56 12.1858m24OOSTKAMP
116.2158VAN HOYE Peter52BEL5:50:114:56 12.1712m50WAASMUNSTER
117.2052KRÜGER Dirk45DEU5:51:184:57 12.1332m40ERKELENZ
118.2111LECLERCQ Philippe42BEL5:51:224:57 12.1233m40LIÈGE
119.2152DE SAEGHER Geert50BEL5:51:374:58 12.1213m50SINT NIKLAAS
120.2124GATINEAU Christophe43FRA5:52:064:58 12.1034m40THIMERT
121.2209DE WIT Jethro34BEL5:52:184:58 12.0959m24WOENSDRECHT
122.2049SIMON Frank58DEU5:52:584:59 12.0714m50GREVEN
123.2170VAN BEEST Christian40NLD5:54:305:00 12.0235m40DEN HAAG
124.2180LINDE Arent Jan43NLD5:55:135:01 11.9936m40AMSTERDAM
125.2181DEICK Andreas52DEU5:57:015:02 11.9315m50BONN
126.2131BRUYERE Olivier44BEL5:57:515:03 11.9037m40JALHAY
127.2203SEPPE Lanckriet25BEL5:58:345:04 11.8860m24ADEGEM
128.2069JOACHIM Yannik44BEL5:58:475:04 11.8738m40BAUDOUR
129.2134DEKNUDT Mario42BEL5:59:345:04 11.8539m40LEFFINGE
130.2095BROENS Kurt43BEL5:59:415:04 11.8440m40MAASEIK
131.2219PROVO Victor34BEL5:59:545:05 11.8461m24VIEUX-BERQUIN
132.2106NEUBERTH Chris34DEU6:00:215:05 11.8262m24STUTTGART
133.2195FHOEBERS Vera36NLD6:01:015:06 11.8011f24UTRECHT
134.2182KERSCHEN Gaetan43BEL6:01:125:06 11.7941m40PLAINEVAUX
135.2125WÉRY Sébastien32BEL6:01:545:06 11.7763m24MONTEGNÉE
136.2127RAEMAEKERS Johan52NLD6:02:105:07 11.7616m50NEDERWEERT
137.2143STECKEL Manfred64DEU6:02:145:07 11.761m60KÖLN
138.2058OELLERS Valentin38DEU6:03:105:07 11.7364m24KÖLN
139.2117FRUBAN Sophie31BEL6:03:315:08 11.7212f24COUILLET
140.2030GERIN Jason25BEL6:04:085:08 11.7065m24MONS
141.2176VAN DESSEL Jean-Paul56BEL6:04:155:08 11.7017m50BLA
142.2068MICHAUX Raphaël42BEL6:04:165:08 11.7042m40GOSSELIES
143.2155ROELEVELD Thomas38NLD6:04:295:09 11.6966m24WASSENBERG
144.2138FKUPER Christine54DEU6:04:485:09 11.681f50BURSCHEID
145.2169KAANDORP Marco31NLD6:05:225:09 11.6667m24BERG EN DAL
146.2035CEUSTERS Patrick54BEL6:05:355:09 11.6518m50ROTSELAAR
147.2185HALLET Xavier35BEL6:06:295:10 11.6268m24EGHEZEE
148.2188KAHMEN Andreas47DEU6:07:115:11 11.6043m40AACHEN
149.2144LADANG Michel63BEL6:07:535:11 11.582m60BATTICE
150.2084PEROTTO Danny36ITA6:07:595:11 11.5869m24SIGNEULX
151.2051DE STREEL Géraud27BEL6:08:065:12 11.5770m24CORROY LE CHATEAU
152.2070GEERTS Guy48BEL6:09:105:12 11.5444m40MOL
153.2147ABOU TAHA Mohamad32BEL6:09:405:13 11.5271m24IXELLES
154.2026FVAN GAEVER Véronique42BEL6:14:285:17 11.382f40DESTELBERGEN
155.2113VAN DER POST Edo26NLD6:14:525:17 11.3672m24GOUDA
156.2148KEIZER Roger51NLD6:14:575:17 11.3619m50DORDRECHT
157.2101ZAJONZ Anthony35FRA6:14:595:17 11.3673m24VILLERS SIRE NICOLE
158.2001HENROTTE Didier48BEL6:17:125:19 11.2945m40SIBRET
159.2062BAYRO KAISER Fabio35DEU6:18:225:20 11.2674m24AACHEN
160.2202DE GREGORIO Fabrice46BEL6:18:335:20 11.2546m40ANGLEUR
161.2097ZIELKE Carsten51DEU6:18:365:20 11.2520m50MALMEDY
162.2096DERKS Josef68DEU6:21:305:23 11.173m60KEVELAER
163.2077MERCHIE Frédéric50BEL6:22:165:24 11.1421m50BEERSEL
164.2115FLUBBERS MaximeNLD6:24:155:25 11.092xxxAMSTERDAM
165.2191FDE VOS Patricia54BEL6:24:455:26 11.072f50DE PINTE
166.2045MCCORMICK Adam32IRL6:25:455:26 11.0475m24BELFAST
167.2211FLANKHUIJZEN Simone50NLD6:28:485:29 10.963f50DEN HAAG
168.2187DESOBRY Guillaume35BEL6:29:045:29 10.9576m24UCCLE
169.2193FBIMMEL Indra47NLD6:30:225:30 10.913f40BERG EN DAL
170.2072CRNJAK Raphaël49BEL6:31:145:31 10.8947m40BEAUFAYS
171.2159NIJS Bert58BEL6:42:525:41 10.5722m50BRASSCHAAT
172.2192KRASENBRINK Berthold48DEU6:43:195:41 10.5648m40DEN HAAG
173.2136VANWELDE Jean-François32BEL6:49:115:46 10.4177m24BRAINE-L'ALLEUD
174.2050WILLAME Didier53BEL6:49:275:47 10.4023m50MONT-SAINT-GUIBERT
175.2220MATTART Denis31BEL6:49:405:47 10.4078m24RAMILLIES
176.2010FBODDÉ Marilou26NLD6:52:305:49 10.3313f24BILTHOVEN
177.2080FCOEN Anneleen32BEL6:57:415:53 10.2014f24BRECHT
178.2139VERHAGHEN Patrik54BEL7:00:025:55 10.1424m50GENAPPE
179.2200ORTEGA-TORRES Enrique61BEL7:05:226:00 10.014m60MELLET
180.2133NERRINCK Philippe61BEL7:05:226:00 10.015m60CHÂTELET
181.2017DE SMET Jan66BEL7:17:016:10 9.756m60GEEL
182.2022DEVOS Bart46BEL7:21:116:13 9.6649m40KORTRIJK
183.2204GEBOERS Hugo65BEL7:21:586:14 9.647m60OUD-TURNHOUT
DSQ2016HACH Florian32DEU5:25:52m24ESCHWEILER
DNF2034BOUVART Cedric41FRAm40AULNOYE-AYMERIES
DNF2066CHARLES Marc57BELm50CHARLEROI
DNF2092DASSARGUES Charles36BELm24BRUXELLES
DNF2059DE WEERDT Koen41BELm40SINT-KATELIJNE-WAVER
DNF2081DELMELLE Ludo35BELm24MICHELBEKE
DNF2104HINZ Hans-Jörg58DEUm50AACHEN
DNF2215KÄPPELER Michael53DEUm50MECHERNICH
DNF2038MAES Glenn27BELm24LOMMEL
DNF2078MICHIELS Sven37BELm24KRUIBEKE
DNF2150FPETERSE Eline25NLDf24UTRECHT
DNF2110RADERMECKER Michel38BELm24BERNIMONT
DNF2194SJAAK Hoebers34NLDm24BERINGE
DNF2179TRUIN Alwin39NLDm24HILVERSUM
DNF2065VAN DE WOUWER Peter55BELm50DUFFEL
DNF2189VERHAEGHE Dirk53BELm50OOSTENDE
DNF: abandon; DSQ: disqualifié; Vitesse en km/h
Page: [1]